Time;durP1;ratioP1;P1;durP2;ratioP2;P2;SDS_P1;SDS_P2;PMS_P1;PMS_P2;Temp;Humidity;BMP_temperature;BMP_pressure;BME280_temperature;BME280_humidity;BME280_pressure;Samples;Min_cycle;Max_cycle;Signal;HPM_P1;HPM_P2
2021/07/20 00:00:40;;;;;;;12.73;9.52;;;;;;;;;;2057584;28;20178;-48
2021/07/20 00:01:41;;;;;;;11.50;9.30;;;;;;;;;;2056875;28;20189;-49
2021/07/20 00:02:43;;;;;;;9.95;8.82;;;;;;;;;;2065644;28;20174;-47
2021/07/20 00:03:44;;;;;;;12.82;9.32;;;;;;;;;;2073320;28;20209;-48
2021/07/20 00:04:45;;;;;;;11.93;9.02;;;;;;;;;;2066240;28;20181;-52
2021/07/20 00:05:45;;;;;;;10.52;8.88;;;;;;;;;;2066025;28;20200;-51
2021/07/20 00:06:45;;;;;;;13.90;10.05;;;;;;;;;;2066114;28;20228;-48
2021/07/20 00:07:45;;;;;;;14.05;9.27;;;;;;;;;;2066192;28;20180;-49
2021/07/20 00:08:46;;;;;;;10.52;8.77;;;;;;;;;;2066158;28;20178;-49
2021/07/20 00:09:46;;;;;;;13.18;9.05;;;;;;;;;;2065870;28;20182;-49
2021/07/20 00:10:51;;;;;;;13.15;8.90;;;;;;;;;;2066068;28;20798;-51
2021/07/20 00:11:51;;;;;;;10.80;8.63;;;;;;;;;;2066002;28;20177;-52
2021/07/20 00:12:51;;;;;;;12.30;9.20;;;;;;;;;;2066792;28;20172;-50
2021/07/20 00:13:52;;;;;;;15.45;8.70;;;;;;;;;;2065546;28;20256;-51
2021/07/20 00:14:52;;;;;;;13.02;9.20;;;;;;;;;;2066051;28;20712;-51
2021/07/20 00:15:55;;;;;;;11.63;7.85;;;;;;;;;;2065434;28;20185;-48
2021/07/20 00:16:55;;;;;;;12.10;9.18;;;;;;;;;;2065139;28;20182;-52
2021/07/20 00:17:57;;;;;;;12.30;8.75;;;;;;;;;;2065640;28;20257;-49
2021/07/20 00:18:57;;;;;;;11.85;8.80;;;;;;;;;;2066108;28;20200;-50
2021/07/20 00:19:57;;;;;;;14.18;8.23;;;;;;;;;;2066166;28;20174;-49
2021/07/20 00:20:57;;;;;;;11.23;7.85;;;;;;;;;;2066214;28;20166;-50
2021/07/20 00:21:58;;;;;;;14.25;8.60;;;;;;;;;;2065424;28;20197;-55
2021/07/20 00:22:58;;;;;;;10.50;8.15;;;;;;;;;;2066100;28;20165;-52
2021/07/20 00:23:58;;;;;;;9.80;7.93;;;;;;;;;;2065995;28;20189;-51
2021/07/20 00:24:58;;;;;;;10.07;7.57;;;;;;;;;;2065992;28;20166;-49
2021/07/20 00:25:59;;;;;;;10.90;8.55;;;;;;;;;;2065937;28;20708;-51
2021/07/20 00:26:59;;;;;;;9.57;7.60;;;;;;;;;;2065330;28;20630;-49
2021/07/20 00:28:00;;;;;;;11.50;8.05;;;;;;;;;;2065782;28;20174;-48
2021/07/20 00:29:02;;;;;;;10.25;8.23;;;;;;;;;;2065748;28;20179;-53
2021/07/20 00:30:06;;;;;;;9.82;7.32;;;;;;;;;;2073370;28;20173;-50
2021/07/20 00:31:06;;;;;;;9.23;8.23;;;;;;;;;;2073186;28;20252;-50
2021/07/20 00:32:07;;;;;;;10.32;8.23;;;;;;;;;;2065981;28;20177;-53
2021/07/20 00:33:07;;;;;;;11.07;8.43;;;;;;;;;;2065444;28;20178;-49
2021/07/20 00:34:07;;;;;;;10.93;8.30;;;;;;;;;;2065237;28;20170;-50
2021/07/20 00:35:09;;;;;;;12.38;8.73;;;;;;;;;;2065162;28;20224;-47
2021/07/20 00:36:09;;;;;;;13.23;8.40;;;;;;;;;;2064996;28;20737;-53
2021/07/20 00:37:10;;;;;;;17.63;9.23;;;;;;;;;;2073469;28;20204;-50
2021/07/20 00:38:11;;;;;;;11.38;8.80;;;;;;;;;;2073379;28;20252;-50
2021/07/20 00:39:12;;;;;;;10.65;8.85;;;;;;;;;;2065221;28;20181;-52
2021/07/20 00:40:14;;;;;;;11.13;8.02;;;;;;;;;;2065614;28;20192;-47
2021/07/20 00:41:14;;;;;;;10.82;8.77;;;;;;;;;;2065315;28;20249;-49
2021/07/20 00:42:16;;;;;;;10.07;8.75;;;;;;;;;;2065566;28;20204;-48
2021/07/20 00:43:16;;;;;;;12.43;8.13;;;;;;;;;;2065360;28;20181;-51
2021/07/20 00:44:19;;;;;;;11.45;8.60;;;;;;;;;;2066084;28;20653;-48
2021/07/20 00:45:21;;;;;;;10.75;8.02;;;;;;;;;;2065284;28;20178;-50
2021/07/20 00:46:23;;;;;;;9.38;8.00;;;;;;;;;;2064936;28;20284;-49
2021/07/20 00:47:23;;;;;;;9.95;8.80;;;;;;;;;;2065170;28;20727;-53
2021/07/20 00:48:24;;;;;;;10.75;8.85;;;;;;;;;;2065629;28;20169;-52
2021/07/20 00:49:26;;;;;;;10.35;8.02;;;;;;;;;;2065312;28;20177;-53
2021/07/20 00:50:28;;;;;;;12.63;8.95;;;;;;;;;;2065496;28;20595;-50
2021/07/20 00:51:29;;;;;;;13.15;8.40;;;;;;;;;;2064892;28;20693;-50
2021/07/20 00:52:29;;;;;;;9.80;8.23;;;;;;;;;;2065221;28;20221;-51
2021/07/20 00:53:30;;;;;;;10.25;8.32;;;;;;;;;;2056890;28;20170;-52
2021/07/20 00:54:39;;;;;;;8.93;7.68;;;;;;;;;;2051205;28;20269;-52
2021/07/20 00:55:39;;;;;;;10.75;8.10;;;;;;;;;;2057014;28;20190;-49
2021/07/20 00:56:41;;;;;;;10.77;8.05;;;;;;;;;;2063955;28;20678;-52
2021/07/20 00:57:42;;;;;;;13.27;8.10;;;;;;;;;;2056981;28;20229;-49
2021/07/20 00:58:43;;;;;;;12.85;8.70;;;;;;;;;;2059436;28;20172;-50
2021/07/20 00:59:44;;;;;;;13.45;8.52;;;;;;;;;;2072257;28;20188;-50
2021/07/20 01:00:51;;;;;;;15.35;8.95;;;;;;;;;;2070109;28;20177;-53
2021/07/20 01:01:53;;;;;;;10.68;8.23;;;;;;;;;;2064640;28;20181;-50
2021/07/20 01:02:54;;;;;;;10.65;8.00;;;;;;;;;;2052067;28;20184;-52
2021/07/20 01:03:57;;;;;;;10.77;7.88;;;;;;;;;;2051427;28;20179;-55
2021/07/20 01:05:04;;;;;;;10.23;8.30;;;;;;;;;;2052485;28;20178;-52
2021/07/20 01:06:05;;;;;;;10.77;8.35;;;;;;;;;;2055798;28;20202;-49
2021/07/20 01:07:06;;;;;;;10.60;8.68;;;;;;;;;;2055258;28;20185;-47
2021/07/20 01:08:06;;;;;;;10.15;8.68;;;;;;;;;;2064125;28;20193;-51
2021/07/20 01:09:10;;;;;;;10.63;9.23;;;;;;;;;;2064297;28;20185;-55
2021/07/20 01:10:15;;;;;;;9.20;7.80;;;;;;;;;;2062874;28;20196;-51
2021/07/20 01:11:16;;;;;;;9.23;8.05;;;;;;;;;;2064550;28;20229;-52
2021/07/20 01:12:20;;;;;;;12.85;8.65;;;;;;;;;;2064062;28;20181;-49
2021/07/20 01:13:22;;;;;;;9.82;8.13;;;;;;;;;;2064933;28;20611;-51
2021/07/20 01:14:25;;;;;;;9.13;8.07;;;;;;;;;;2056636;28;20265;-50
2021/07/20 01:15:26;;;;;;;11.80;8.68;;;;;;;;;;2056330;28;20761;-50
2021/07/20 01:16:28;;;;;;;11.52;8.13;;;;;;;;;;2061107;28;20190;-49
2021/07/20 01:17:29;;;;;;;10.88;8.57;;;;;;;;;;2071018;28;20211;-49
2021/07/20 01:18:33;;;;;;;12.75;8.13;;;;;;;;;;2063723;28;20641;-53
2021/07/20 01:19:43;;;;;;;10.57;8.40;;;;;;;;;;2060298;28;20209;-53
2021/07/20 01:20:44;;;;;;;12.10;8.25;;;;;;;;;;2064956;28;20190;-52
2021/07/20 01:21:47;;;;;;;11.02;8.55;;;;;;;;;;2062566;28;20170;-50
2021/07/20 01:23:07;;;;;;;9.07;7.80;;;;;;;;;;2056864;28;20178;-48
2021/07/20 01:24:11;;;;;;;9.77;8.00;;;;;;;;;;2057158;28;20196;-53
2021/07/20 01:25:11;;;;;;;11.43;8.38;;;;;;;;;;2064318;28;20177;-51
2021/07/20 01:26:13;;;;;;;13.32;8.85;;;;;;;;;;2060781;28;20197;-49
2021/07/20 01:27:13;;;;;;;9.68;8.07;;;;;;;;;;2065017;28;20285;-49
2021/07/20 01:28:20;;;;;;;13.55;8.77;;;;;;;;;;2063606;28;20185;-53
2021/07/20 01:29:21;;;;;;;11.93;9.10;;;;;;;;;;2064056;28;20180;-54
2021/07/20 01:30:22;;;;;;;14.57;9.43;;;;;;;;;;2061880;28;20288;-51
2021/07/20 01:31:25;;;;;;;11.40;9.48;;;;;;;;;;2055632;28;20658;-51
2021/07/20 01:32:32;;;;;;;12.40;8.93;;;;;;;;;;2062879;28;20177;-50
2021/07/20 01:33:34;;;;;;;9.90;8.73;;;;;;;;;;2064129;28;20180;-53
2021/07/20 01:34:36;;;;;;;11.52;9.05;;;;;;;;;;2072168;28;20173;-51
2021/07/20 01:35:40;;;;;;;12.82;9.15;;;;;;;;;;2064078;28;20198;-50
2021/07/20 01:36:44;;;;;;;11.20;8.70;;;;;;;;;;2055749;28;20177;-48
2021/07/20 01:37:47;;;;;;;11.45;9.13;;;;;;;;;;2052939;28;20846;-48
2021/07/20 01:38:52;;;;;;;16.50;9.65;;;;;;;;;;2062986;28;20177;-50
2021/07/20 01:39:53;;;;;;;11.25;9.50;;;;;;;;;;2056227;28;20179;-51
2021/07/20 01:40:55;;;;;;;12.55;8.90;;;;;;;;;;2064087;28;20706;-52
2021/07/20 01:41:55;;;;;;;13.00;9.20;;;;;;;;;;2063595;28;20256;-50
2021/07/20 01:42:57;;;;;;;13.13;9.32;;;;;;;;;;2064570;28;20603;-53
2021/07/20 01:44:05;;;;;;;12.23;9.27;;;;;;;;;;2063399;28;20211;-49
2021/07/20 01:45:06;;;;;;;13.60;9.77;;;;;;;;;;2063538;28;20185;-48
2021/07/20 01:46:08;;;;;;;10.90;9.20;;;;;;;;;;2058977;28;20846;-52
2021/07/20 01:47:09;;;;;;;14.00;10.57;;;;;;;;;;2062872;28;20249;-49
2021/07/20 01:48:13;;;;;;;14.98;10.05;;;;;;;;;;2060432;28;20173;-50
2021/07/20 01:49:15;;;;;;;13.40;10.05;;;;;;;;;;2063871;28;20184;-49
2021/07/20 01:50:18;;;;;;;16.02;10.70;;;;;;;;;;2056070;28;20238;-50
2021/07/20 01:51:19;;;;;;;15.05;10.48;;;;;;;;;;2055830;28;20643;-48
2021/07/20 01:52:22;;;;;;;14.13;9.82;;;;;;;;;;2055586;28;20209;-49
2021/07/20 01:53:23;;;;;;;16.30;10.30;;;;;;;;;;2051053;28;20178;-51
2021/07/20 01:54:24;;;;;;;15.85;11.02;;;;;;;;;;2053983;28;20175;-50
2021/07/20 01:55:25;;;;;;;17.48;10.68;;;;;;;;;;2055834;28;20198;-49
2021/07/20 01:56:26;;;;;;;14.70;10.63;;;;;;;;;;2062374;28;20316;-49
2021/07/20 01:57:27;;;;;;;17.83;11.02;;;;;;;;;;2064085;28;20177;-51
2021/07/20 01:58:47;;;;;;;16.67;10.95;;;;;;;;;;2055906;28;20197;-50
2021/07/20 02:00:16;;;;;;;16.15;10.85;;;;;;;;;;2063196;28;20181;-51
2021/07/20 02:01:21;;;;;;;14.88;11.00;;;;;;;;;;2067835;28;20184;-47
2021/07/20 02:02:30;;;;;;;17.15;11.88;;;;;;;;;;2063849;28;20617;-49
2021/07/20 02:08:54;;;;;;;15.63;10.02;;;;;;;;;;2062672;28;20181;-51
2021/07/20 02:09:57;;;;;;;14.05;9.85;;;;;;;;;;2064272;28;20177;-49
2021/07/20 02:11:06;;;;;;;16.92;11.30;;;;;;;;;;2063349;28;20192;-52
2021/07/20 02:12:37;;;;;;;16.70;10.80;;;;;;;;;;2062851;28;20201;-48
2021/07/20 02:13:55;;;;;;;12.48;10.00;;;;;;;;;;2056631;28;20326;-50
2021/07/20 02:15:22;;;;;;;16.67;10.18;;;;;;;;;;2062719;28;20189;-52
2021/07/20 02:16:52;;;;;;;13.55;10.18;;;;;;;;;;2058061;28;20185;-52
2021/07/20 02:17:54;;;;;;;15.15;11.15;;;;;;;;;;2063882;28;20174;-52
2021/07/20 02:19:15;;;;;;;12.50;10.75;;;;;;;;;;2056505;28;20169;-54
2021/07/20 02:20:31;;;;;;;13.82;10.38;;;;;;;;;;2056317;28;20186;-48
2021/07/20 02:21:44;;;;;;;139.55;31.20;;;;;;;;;;2052758;28;20298;-50
2021/07/20 02:22:45;;;;;;;14.48;10.30;;;;;;;;;;2064520;28;20166;-53
2021/07/20 02:23:49;;;;;;;16.50;9.88;;;;;;;;;;2064513;28;20288;-51
2021/07/20 02:24:51;;;;;;;17.83;10.98;;;;;;;;;;2056811;28;20197;-51
2021/07/20 02:25:54;;;;;;;15.18;9.93;;;;;;;;;;2064655;28;20221;-48
2021/07/20 02:26:58;;;;;;;12.70;10.10;;;;;;;;;;2064850;28;20177;-48
2021/07/20 02:28:00;;;;;;;13.82;10.13;;;;;;;;;;2064546;28;20264;-48
2021/07/20 02:29:09;;;;;;;14.13;9.63;;;;;;;;;;2064493;28;20208;-53
2021/07/20 02:30:13;;;;;;;15.48;10.80;;;;;;;;;;2064174;28;20240;-54
2021/07/20 02:31:18;;;;;;;17.40;10.20;;;;;;;;;;2063902;28;20293;-51
2021/07/20 02:32:21;;;;;;;11.50;9.70;;;;;;;;;;2064789;28;20720;-48
2021/07/20 02:33:23;;;;;;;13.77;10.32;;;;;;;;;;2065216;28;20181;-51
2021/07/20 02:34:27;;;;;;;14.68;9.43;;;;;;;;;;2065502;28;20189;-55
2021/07/20 02:35:29;;;;;;;15.82;9.88;;;;;;;;;;2056207;28;20216;-52
2021/07/20 02:36:35;;;;;;;14.63;10.38;;;;;;;;;;2053127;28;20866;-48
2021/07/20 02:37:38;;;;;;;16.77;10.43;;;;;;;;;;2056861;28;20170;-52
2021/07/20 02:38:40;;;;;;;12.00;9.10;;;;;;;;;;2055368;28;20186;-51
2021/07/20 02:39:45;;;;;;;16.05;10.63;;;;;;;;;;2056567;28;20186;-54
2021/07/20 02:40:47;;;;;;;16.63;10.32;;;;;;;;;;2071700;28;20185;-50
2021/07/20 02:41:48;;;;;;;13.60;9.82;;;;;;;;;;2063932;28;20178;-52
2021/07/20 02:42:50;;;;;;;12.70;9.43;;;;;;;;;;2063562;28;20185;-54
2021/07/20 02:43:50;;;;;;;13.95;10.88;;;;;;;;;;2064003;28;20181;-49
2021/07/20 02:44:52;;;;;;;15.02;10.60;;;;;;;;;;2064088;28;20166;-53
2021/07/20 02:45:54;;;;;;;13.50;9.93;;;;;;;;;;2071662;28;20586;-48
2021/07/20 02:46:57;;;;;;;15.63;10.50;;;;;;;;;;2063729;28;20244;-51
2021/07/20 02:47:58;;;;;;;12.85;10.57;;;;;;;;;;2055895;28;20632;-50
2021/07/20 02:49:01;;;;;;;15.27;10.77;;;;;;;;;;2061437;28;20260;-49
2021/07/20 02:50:03;;;;;;;16.33;11.07;;;;;;;;;;2063401;28;20204;-53
2021/07/20 02:51:04;;;;;;;13.93;10.60;;;;;;;;;;2055632;28;20173;-51
2021/07/20 02:52:15;;;;;;;16.75;10.82;;;;;;;;;;2059026;28;20185;-50
2021/07/20 02:53:15;;;;;;;15.68;10.98;;;;;;;;;;2066539;28;20553;-51
2021/07/20 02:54:26;;;;;;;14.18;10.02;;;;;;;;;;2065405;28;20169;-51
2021/07/20 02:55:28;;;;;;;19.88;10.80;;;;;;;;;;2065569;28;20228;-49
2021/07/20 02:56:29;;;;;;;17.02;10.90;;;;;;;;;;2071586;28;20286;-53
2021/07/20 02:57:36;;;;;;;16.63;11.25;;;;;;;;;;2065366;28;20177;-50
2021/07/20 02:58:39;;;;;;;17.20;10.85;;;;;;;;;;2052653;28;20181;-50
2021/07/20 02:59:43;;;;;;;13.82;10.77;;;;;;;;;;2063156;28;20186;-53
2021/07/20 03:00:50;;;;;;;15.07;10.30;;;;;;;;;;2058722;28;20667;-52
2021/07/20 03:01:55;;;;;;;19.23;11.95;;;;;;;;;;2062599;28;20166;-49
2021/07/20 03:02:56;;;;;;;13.95;10.00;;;;;;;;;;2065968;28;20634;-51
2021/07/20 03:03:58;;;;;;;18.60;11.52;;;;;;;;;;2060932;28;20170;-52
2021/07/20 03:05:04;;;;;;;14.07;11.02;;;;;;;;;;2066631;28;20231;-50
2021/07/20 03:06:06;;;;;;;17.42;11.75;;;;;;;;;;2064600;28;20661;-52
2021/07/20 03:07:11;;;;;;;14.52;11.35;;;;;;;;;;2057061;28;20222;-50
2021/07/20 03:08:18;;;;;;;18.42;11.55;;;;;;;;;;2059066;28;20232;-51
2021/07/20 03:09:33;;;;;;;13.65;10.15;;;;;;;;;;2056772;28;20194;-54
2021/07/20 03:10:36;;;;;;;13.90;11.60;;;;;;;;;;2057689;28;20683;-50
2021/07/20 03:11:38;;;;;;;14.07;10.43;;;;;;;;;;2065167;28;20181;-55
2021/07/20 03:12:40;;;;;;;16.65;11.48;;;;;;;;;;2073890;28;20620;-52
2021/07/20 03:13:44;;;;;;;18.40;11.52;;;;;;;;;;2066050;28;20690;-49
2021/07/20 03:14:45;;;;;;;17.02;10.98;;;;;;;;;;2060537;28;20170;-50
2021/07/20 03:15:50;;;;;;;16.88;12.38;;;;;;;;;;2075570;28;20625;-51
2021/07/20 03:16:54;;;;;;;18.58;12.07;;;;;;;;;;2075873;28;20176;-49
2021/07/20 03:17:57;;;;;;;19.10;11.25;;;;;;;;;;2073540;28;20181;-48
2021/07/20 03:18:57;;;;;;;16.02;11.15;;;;;;;;;;2065703;28;20165;-54
2021/07/20 03:19:59;;;;;;;17.25;11.55;;;;;;;;;;2056462;28;20198;-52
2021/07/20 03:21:05;;;;;;;16.25;11.38;;;;;;;;;;2057546;28;20183;-57
2021/07/20 03:22:07;;;;;;;19.60;12.30;;;;;;;;;;2052609;28;20182;-51
2021/07/20 03:23:12;;;;;;;16.15;11.65;;;;;;;;;;2057739;28;20174;-52
2021/07/20 03:24:15;;;;;;;18.05;11.98;;;;;;;;;;2056956;28;20550;-48
2021/07/20 03:25:17;;;;;;;16.35;12.43;;;;;;;;;;2061638;28;20291;-48
2021/07/20 03:26:19;;;;;;;16.58;12.10;;;;;;;;;;2072771;28;20173;-51
2021/07/20 03:27:22;;;;;;;16.70;11.60;;;;;;;;;;2064828;28;20181;-50
2021/07/20 03:28:28;;;;;;;15.68;11.55;;;;;;;;;;2065813;28;20213;-50
2021/07/20 03:29:30;;;;;;;17.38;11.90;;;;;;;;;;2065271;28;20311;-52
2021/07/20 03:30:32;;;;;;;14.60;11.65;;;;;;;;;;2065841;28;20248;-52
2021/07/20 03:31:36;;;;;;;16.45;11.15;;;;;;;;;;2065123;28;20241;-51
2021/07/20 03:32:37;;;;;;;15.48;11.82;;;;;;;;;;2072676;28;20200;-51
2021/07/20 03:33:39;;;;;;;17.27;11.65;;;;;;;;;;2073347;28;20551;-49
2021/07/20 03:34:48;;;;;;;17.35;12.07;;;;;;;;;;2061567;28;20209;-51
2021/07/20 03:35:51;;;;;;;16.17;12.18;;;;;;;;;;2058498;28;20585;-56
2021/07/20 03:36:52;;;;;;;18.08;12.50;;;;;;;;;;2063324;28;20180;-52
2021/07/20 03:37:53;;;;;;;15.80;11.48;;;;;;;;;;2073266;28;20743;-54
2021/07/20 03:38:54;;;;;;;18.08;11.95;;;;;;;;;;2062081;28;20166;-49
2021/07/20 03:39:56;;;;;;;18.85;12.75;;;;;;;;;;2064773;28;20218;-51
2021/07/20 03:40:57;;;;;;;17.23;11.65;;;;;;;;;;2062683;28;20185;-50
2021/07/20 03:42:00;;;;;;;21.60;13.40;;;;;;;;;;2065417;28;20581;-51
2021/07/20 03:43:02;;;;;;;16.70;12.57;;;;;;;;;;2062136;28;20174;-48
2021/07/20 03:44:03;;;;;;;16.35;12.43;;;;;;;;;;2057695;28;20173;-53
2021/07/20 03:45:06;;;;;;;18.00;12.85;;;;;;;;;;2056756;28;20200;-50
2021/07/20 03:46:08;;;;;;;19.35;12.90;;;;;;;;;;2049333;28;20191;-47
2021/07/20 03:47:09;;;;;;;16.23;11.88;;;;;;;;;;2053110;28;20178;-52
2021/07/20 03:48:12;;;;;;;17.77;12.15;;;;;;;;;;2065890;28;20197;-51
2021/07/20 03:49:20;;;;;;;19.15;12.57;;;;;;;;;;2062102;28;20232;-50
2021/07/20 03:50:24;;;;;;;20.23;11.95;;;;;;;;;;2062808;28;20340;-49
2021/07/20 03:51:26;;;;;;;17.48;12.55;;;;;;;;;;2071154;28;20176;-50
2021/07/20 03:52:27;;;;;;;18.20;11.80;;;;;;;;;;2065924;28;20177;-49
2021/07/20 03:53:29;;;;;;;22.13;12.43;;;;;;;;;;2061335;28;20162;-49
2021/07/20 03:54:31;;;;;;;15.75;11.90;;;;;;;;;;2066435;28;20174;-51
2021/07/20 03:55:34;;;;;;;16.67;12.88;;;;;;;;;;2066064;28;20178;-48
2021/07/20 03:56:36;;;;;;;18.67;12.45;;;;;;;;;;2065160;28;20172;-50
2021/07/20 03:57:37;;;;;;;19.30;12.45;;;;;;;;;;2057549;28;20229;-49
2021/07/20 03:58:38;;;;;;;17.30;12.70;;;;;;;;;;2057587;28;20167;-53
2021/07/20 03:59:39;;;;;;;16.73;11.35;;;;;;;;;;2052322;28;20651;-53
2021/07/20 04:00:59;;;;;;;17.70;12.35;;;;;;;;;;2061523;28;20205;-53
2021/07/20 04:02:00;;;;;;;19.20;12.20;;;;;;;;;;2066477;28;20165;-53
2021/07/20 04:03:21;;;;;;;18.35;12.38;;;;;;;;;;2070284;28;20172;-50
2021/07/20 04:04:42;;;;;;;19.33;12.60;;;;;;;;;;2069320;28;20260;-54
2021/07/20 04:05:43;;;;;;;15.65;11.93;;;;;;;;;;2065059;28;20194;-50
2021/07/20 04:06:44;;;;;;;16.92;12.05;;;;;;;;;;2057752;28;20269;-50
2021/07/20 04:08:08;;;;;;;15.73;11.30;;;;;;;;;;2066091;28;20162;-51
2021/07/20 04:09:16;;;;;;;15.80;11.45;;;;;;;;;;2073719;28;20169;-54
2021/07/20 04:10:35;;;;;;;17.55;11.52;;;;;;;;;;2071129;28;20586;-51
2021/07/20 04:11:55;;;;;;;17.52;11.52;;;;;;;;;;2063176;28;20172;-49
2021/07/20 04:13:03;;;;;;;15.23;11.23;;;;;;;;;;2067288;28;20219;-49
2021/07/20 04:14:14;;;;;;;15.43;10.55;;;;;;;;;;2065454;28;20162;-51
2021/07/20 04:15:22;;;;;;;17.83;11.20;;;;;;;;;;2052334;28;20171;-51
2021/07/20 04:16:34;;;;;;;16.08;11.55;;;;;;;;;;2065584;28;20181;-53
2021/07/20 04:17:35;;;;;;;20.27;11.43;;;;;;;;;;2074733;28;20175;-52
2021/07/20 04:18:36;;;;;;;16.38;11.13;;;;;;;;;;2067228;28;20200;-49
2021/07/20 04:19:40;;;;;;;15.13;10.57;;;;;;;;;;2070708;28;20166;-55
2021/07/20 04:20:45;;;;;;;15.95;10.90;;;;;;;;;;2071819;28;20181;-51
2021/07/20 04:21:46;;;;;;;14.63;11.40;;;;;;;;;;2077748;28;20180;-49
2021/07/20 04:22:48;;;;;;;18.27;11.50;;;;;;;;;;2071216;28;20232;-50
2021/07/20 04:23:52;;;;;;;17.17;11.50;;;;;;;;;;2068902;28;20182;-47
2021/07/20 04:25:01;;;;;;;15.52;10.25;;;;;;;;;;2066883;28;20234;-48
2021/07/20 04:26:09;;;;;;;17.52;10.18;;;;;;;;;;2070805;28;20265;-50
2021/07/20 04:27:12;;;;;;;13.90;9.93;;;;;;;;;;2063674;28;20270;-52
2021/07/20 04:28:13;;;;;;;15.38;11.05;;;;;;;;;;2067616;28;20232;-50
2021/07/20 04:29:14;;;;;;;15.77;11.40;;;;;;;;;;2069934;28;20180;-48
2021/07/20 04:30:19;;;;;;;14.60;11.02;;;;;;;;;;2067428;28;20713;-48
2021/07/20 04:31:24;;;;;;;12.90;10.80;;;;;;;;;;2068918;28;20173;-49
2021/07/20 04:32:26;;;;;;;15.70;10.57;;;;;;;;;;2080938;28;20227;-51
2021/07/20 04:33:29;;;;;;;16.50;11.27;;;;;;;;;;2072338;28;20177;-50
2021/07/20 04:34:50;;;;;;;16.85;10.45;;;;;;;;;;2066539;28;20282;-50
2021/07/20 04:37:13;;;;;;;16.58;10.18;;;;;;;;;;2047516;28;20561;-55
2021/07/20 04:38:17;;;;;;;13.25;10.00;;;;;;;;;;2056406;28;20288;-58
2021/07/20 04:39:17;;;;;;;16.20;10.20;;;;;;;;;;2057035;28;20182;-53
2021/07/20 04:40:18;;;;;;;15.45;10.57;;;;;;;;;;2056701;28;20190;-58
2021/07/20 04:41:20;;;;;;;15.63;10.43;;;;;;;;;;2056323;28;20736;-53
2021/07/20 04:42:20;;;;;;;13.57;10.18;;;;;;;;;;2062570;28;20236;-56
2021/07/20 04:43:23;;;;;;;12.93;9.90;;;;;;;;;;2060174;28;20170;-57
2021/07/20 04:44:23;;;;;;;14.20;10.27;;;;;;;;;;2048493;29;20178;-54
2021/07/20 04:45:41;;;;;;;14.77;9.77;;;;;;;;;;2057009;28;20174;-57
2021/07/20 04:46:44;;;;;;;14.05;10.07;;;;;;;;;;2049661;28;20226;-56
2021/07/20 04:47:45;;;;;;;15.02;10.98;;;;;;;;;;2048449;28;20187;-58
2021/07/20 04:49:06;;;;;;;14.23;10.18;;;;;;;;;;2044477;28;20274;-57
2021/07/20 04:50:08;;;;;;;13.25;9.60;;;;;;;;;;2054522;28;20560;-56
2021/07/20 04:51:11;;;;;;;12.63;10.18;;;;;;;;;;2046128;28;20206;-55
2021/07/20 04:52:13;;;;;;;13.68;10.30;;;;;;;;;;2047755;28;20675;-56
2021/07/20 04:53:14;;;;;;;12.70;10.15;;;;;;;;;;2047872;28;20681;-56
2021/07/20 04:54:18;;;;;;;13.25;10.52;;;;;;;;;;2048438;28;20178;-56
2021/07/20 04:55:28;;;;;;;16.20;10.80;;;;;;;;;;2039375;29;20191;-55
2021/07/20 04:56:32;;;;;;;10.77;9.55;;;;;;;;;;2039074;29;20303;-53
2021/07/20 04:57:34;;;;;;;16.92;9.80;;;;;;;;;;2047417;28;20171;-59
2021/07/20 04:58:34;;;;;;;10.98;9.02;;;;;;;;;;2049834;28;20167;-56
2021/07/20 04:59:37;;;;;;;12.93;10.18;;;;;;;;;;2048774;28;20177;-55
2021/07/20 05:00:38;;;;;;;13.98;8.80;;;;;;;;;;2050554;28;20591;-57
2021/07/20 05:01:40;;;;;;;12.10;9.38;;;;;;;;;;2051032;28;20191;-54
2021/07/20 05:02:46;;;;;;;12.95;9.52;;;;;;;;;;2050961;28;20179;-52
2021/07/20 05:03:49;;;;;;;14.25;10.82;;;;;;;;;;2038301;29;20189;-56
2021/07/20 05:04:56;;;;;;;11.88;9.18;;;;;;;;;;2038796;29;20165;-55
2021/07/20 05:05:59;;;;;;;12.02;10.00;;;;;;;;;;2041853;29;20195;-54
2021/07/20 05:07:09;;;;;;;13.15;8.70;;;;;;;;;;2043936;29;20547;-55
2021/07/20 05:08:13;;;;;;;10.85;8.75;;;;;;;;;;2037218;29;20207;-57
2021/07/20 05:09:17;;;;;;;13.45;9.13;;;;;;;;;;2044310;28;20172;-57
2021/07/20 05:10:18;;;;;;;13.73;8.90;;;;;;;;;;2048251;28;20212;-57
2021/07/20 05:11:38;;;;;;;15.70;9.30;;;;;;;;;;2055352;28;20562;-54
2021/07/20 05:12:40;;;;;;;11.20;9.57;;;;;;;;;;2045391;28;20187;-56
2021/07/20 05:13:45;;;;;;;14.32;9.50;;;;;;;;;;2046866;28;20179;-56
2021/07/20 05:14:47;;;;;;;11.38;9.23;;;;;;;;;;2044109;28;20168;-53
2021/07/20 05:15:51;;;;;;;13.82;10.07;;;;;;;;;;2044931;28;20266;-58
2021/07/20 05:16:53;;;;;;;12.95;9.60;;;;;;;;;;2052493;28;20195;-50
2021/07/20 05:17:55;;;;;;;14.32;10.38;;;;;;;;;;2046414;28;20277;-54
2021/07/20 05:18:55;;;;;;;12.35;9.27;;;;;;;;;;2046686;28;20201;-51
2021/07/20 05:20:17;;;;;;;14.35;9.63;;;;;;;;;;2049703;28;20598;-55
2021/07/20 05:21:37;;;;;;;13.15;9.38;;;;;;;;;;2045145;28;20172;-58
2021/07/20 05:22:38;;;;;;;13.02;8.90;;;;;;;;;;2038212;29;20192;-53
2021/07/20 05:23:39;;;;;;;15.75;9.23;;;;;;;;;;2047466;28;20541;-56
2021/07/20 05:25:00;;;;;;;12.23;9.35;;;;;;;;;;2054566;28;20187;-55
2021/07/20 05:26:02;;;;;;;15.18;9.25;;;;;;;;;;2045592;28;20179;-54
2021/07/20 05:27:02;;;;;;;13.82;9.70;;;;;;;;;;2038698;29;20200;-55
2021/07/20 05:28:05;;;;;;;13.85;10.25;;;;;;;;;;2036678;29;20559;-59
2021/07/20 05:29:06;;;;;;;13.82;10.48;;;;;;;;;;2052612;28;20202;-58
2021/07/20 05:30:16;;;;;;;11.30;9.20;;;;;;;;;;2048014;29;20171;-57
2021/07/20 05:31:17;;;;;;;14.70;10.02;;;;;;;;;;2052535;28;20173;-58
2021/07/20 05:32:20;;;;;;;15.85;10.13;;;;;;;;;;2052803;28;20209;-53
2021/07/20 05:33:22;;;;;;;11.82;9.18;;;;;;;;;;2041636;29;20195;-55
2021/07/20 05:34:32;;;;;;;11.75;10.23;;;;;;;;;;2046723;28;20160;-51
2021/07/20 05:35:34;;;;;;;13.23;9.40;;;;;;;;;;2053953;28;20246;-54
2021/07/20 05:36:35;;;;;;;14.77;10.65;;;;;;;;;;2048084;28;20661;-54
2021/07/20 05:37:37;;;;;;;15.07;10.25;;;;;;;;;;2045635;28;20237;-56
2021/07/20 05:38:39;;;;;;;11.25;9.68;;;;;;;;;;2045801;28;20178;-55
2021/07/20 05:39:58;;;;;;;15.85;9.98;;;;;;;;;;2048654;28;20172;-58
2021/07/20 05:41:07;;;;;;;14.82;9.57;;;;;;;;;;2044974;28;20191;-55
2021/07/20 05:42:07;;;;;;;14.50;9.75;;;;;;;;;;2047128;28;20283;-57
2021/07/20 05:43:14;;;;;;;15.02;10.32;;;;;;;;;;2045903;28;20182;-58
2021/07/20 05:44:17;;;;;;;12.75;9.27;;;;;;;;;;2043850;28;20186;-54
2021/07/20 05:45:20;;;;;;;16.50;9.63;;;;;;;;;;2053265;28;20252;-57
2021/07/20 05:46:25;;;;;;;12.10;9.60;;;;;;;;;;2051882;28;20290;-56
2021/07/20 05:47:28;;;;;;;13.32;9.45;;;;;;;;;;2040998;29;20242;-57
2021/07/20 05:48:28;;;;;;;11.57;9.88;;;;;;;;;;2054508;28;20169;-57
2021/07/20 05:49:30;;;;;;;12.98;9.80;;;;;;;;;;2057811;28;20543;-57
2021/07/20 05:50:30;;;;;;;13.00;9.40;;;;;;;;;;2042874;29;20191;-55
2021/07/20 05:51:49;;;;;;;15.23;9.13;;;;;;;;;;2039046;28;20181;-57
2021/07/20 05:52:50;;;;;;;13.55;9.32;;;;;;;;;;2048945;28;20176;-57
2021/07/20 05:53:52;;;;;;;13.63;9.45;;;;;;;;;;2049102;28;20238;-57
2021/07/20 05:55:11;;;;;;;13.75;9.65;;;;;;;;;;2061756;28;20840;-55
2021/07/20 05:56:13;;;;;;;14.48;9.02;;;;;;;;;;2051429;28;20196;-57
2021/07/20 05:57:24;;;;;;;16.45;9.45;;;;;;;;;;2052908;28;20559;-54
2021/07/20 05:58:29;;;;;;;16.38;8.68;;;;;;;;;;2050920;28;20654;-52
2021/07/20 05:59:30;;;;;;;12.73;8.95;;;;;;;;;;2048905;28;20183;-55
2021/07/20 06:00:33;;;;;;;12.40;8.82;;;;;;;;;;2042301;29;20172;-56
2021/07/20 06:01:40;;;;;;;11.43;7.85;;;;;;;;;;2038846;29;20195;-53
2021/07/20 06:02:42;;;;;;;16.17;8.90;;;;;;;;;;2039109;29;20565;-58
2021/07/20 06:03:43;;;;;;;10.85;8.13;;;;;;;;;;2046621;28;20227;-57
2021/07/20 06:04:44;;;;;;;13.38;8.65;;;;;;;;;;2053883;28;20261;-55
2021/07/20 06:05:47;;;;;;;12.65;8.95;;;;;;;;;;2052784;28;20197;-55
2021/07/20 06:06:49;;;;;;;11.48;8.98;;;;;;;;;;2054532;28;20270;-57
2021/07/20 06:07:49;;;;;;;12.18;8.23;;;;;;;;;;2056562;28;20182;-59
2021/07/20 06:08:49;;;;;;;15.65;8.98;;;;;;;;;;2057666;28;20170;-60
2021/07/20 06:09:50;;;;;;;11.32;7.88;;;;;;;;;;2064459;28;20185;-60
2021/07/20 06:10:52;;;;;;;12.32;8.55;;;;;;;;;;2057101;28;20734;-60
2021/07/20 06:11:52;;;;;;;11.10;7.75;;;;;;;;;;2060407;28;20240;-57
2021/07/20 06:12:54;;;;;;;13.75;8.35;;;;;;;;;;2059278;28;20232;-57
2021/07/20 06:13:55;;;;;;;9.93;7.80;;;;;;;;;;2058317;28;20528;-58
2021/07/20 06:14:55;;;;;;;10.40;7.95;;;;;;;;;;2057064;28;20243;-60
2021/07/20 06:15:56;;;;;;;12.48;8.85;;;;;;;;;;2058541;28;20268;-59
2021/07/20 06:16:57;;;;;;;11.95;8.15;;;;;;;;;;2052978;28;20201;-59
2021/07/20 06:17:58;;;;;;;10.15;7.90;;;;;;;;;;2046999;28;20277;-58
2021/07/20 06:18:58;;;;;;;11.13;8.13;;;;;;;;;;2047146;28;20170;-57
2021/07/20 06:19:59;;;;;;;15.88;9.02;;;;;;;;;;2054363;28;20181;-58
2021/07/20 06:21:02;;;;;;;12.48;8.38;;;;;;;;;;2054481;28;20308;-57
2021/07/20 06:22:05;;;;;;;10.85;8.38;;;;;;;;;;2052719;28;20190;-58